Flight Track Log - Related Links

Times and Time Zones

All times are in EDT time to prevent confusion due to time zone crossing. See the N52712 flight status page for this flight to view local times or setup timezone preferences in your user account.

Time Position Orientation Groundspeed Altitude Reporting Facility
EDT Latitude Longitude Course Direction KTS MPH feet Rate Location/Type
Fri 12:22:59 PM 42.4667 -71.3000 324° Northwest 78 90 800  Level KA90
Fri 12:23:47 PM 42.4833 -71.3167 324° Northwest 75 86 1,500 757 Climbing KA90
Fri 12:24:42 PM 42.4833 -71.3500 270° West 77 89 2,100 694 Climbing KA90
Fri 12:25:48 PM 42.4833 -71.3833 270° West 77 89 2,900 496 Climbing KA90
Fri 12:26:43 PM 42.5000 -71.4167 304° West 94 108 3,100 52 Climbing KA90
Fri 12:27:43 PM 42.5000 -71.4500 270° West 101 116 3,000 -50 Descending KA90
Fri 12:28:44 PM 42.5167 -71.4833 304° West 99 114 3,000  Level KA90
Fri 12:29:47 PM 42.5167 -71.5167 270° West 93 107 3,000 48 Level KA90
Fri 12:30:48 PM 42.5333 -71.5500 304° West 98 113 3,100 50 Climbing KA90
Fri 12:31:47 PM 42.5333 -71.5833 270° West 97 112 3,100 -50 Level KA90
Fri 12:32:48 PM 42.5500 -71.6167 304° West 95 109 3,000 -52 Descending KA90
Fri 12:33:42 PM 42.5500 -71.6500 270° West 98 113 3,000 52 Level KA90
Fri 12:34:44 PM 42.5667 -71.6833 304° West 87 100 3,100 48 Climbing KA90
Fri 12:35:47 PM 42.5833 -71.6500 56° Northeast 92 106 3,100 -50 Level KA90
Fri 12:36:43 PM 42.5833 -71.6333 90° East 80 92 3,000 -52 Descending KA90
Fri 12:37:42 PM 42.6000 -71.6000 56° Northeast 77 89 3,000 48 Level KA90
Fri 12:38:48 PM 42.6167 -71.6000 360° North 99 114 3,100 98 Climbing KA90
Fri 12:39:44 PM 42.6167 -71.6333 270° West 74 85 3,200 240 Climbing KA90
Fri 12:40:53 PM 42.6167 -71.6667 270° West 59 68 3,600 47 Climbing KA90
Fri 12:41:53 PM 42.6167 -71.6833 270° West 72 83 3,300 -298 Descending KA90
Fri 12:42:54 PM 42.6000 -71.7000 216° Southwest 64 74 3,000 -99 Descending KA90
Fri 12:43:54 PM 42.5833 -71.7000 180° South 100 115 3,100  Climbing KA90
Fri 12:44:55 PM 42.5667 -71.7167 216° Southwest 91 105 3,000  Descending KA90
Fri 12:45:55 PM 42.5667 -71.7167 216° Southwest 92 106 3,100  Climbing KA90
Fri 12:46:49 PM 42.5500 -71.7167 180° South 102 117 3,000 -214 Descending KA90
Fri 12:47:47 PM 42.5500 -71.7000 90° East 121 139 2,700 -252 Descending KA90
Fri 12:48:48 PM 42.5500 -71.7500 270° West 83 96 2,500 -197 Descending KA90

Login

Don't have an account? Register now (free) for customized features, flight alerts, and more!